Singersville, Pennsylvania
Current Conditions -  °F | °C
As of 1:56 PM on Friday 28 Nov 2014 (Local Time) from KCXY Reporting Station
Broken Clouds Broken Clouds  
Wind Chill: 27°   Ceiling: 5000
Heat Index: 35°   Visibility: 10mi
Dew Point: 16°   Wind: 10mph
Humidity: 46%   Direction: 290°WNW
Pressure: 30.24"   Gusts: NA
Location:  40.4076°N, 76.8769°W
Report Text: KCXY 281856Z 29009KT 260V320 10SM BKN050 02/M09 A3024 RMK AO2 SLP243 T00171089
Loading
Personal Weather Stations






























Interactive Weather Map New forecast layout! Learn more

10-Day Weather Forecast

Advertisements
Track Severe Weather on mobile